sensor_id;sensor_type;location;lat;lon;timestamp;P1;durP1;ratioP1;P2;durP2;ratioP2
50128;SDS011;36026;45.478;9.224;2022-09-02T00:00:04;4.75;;;1.90;;
50128;SDS011;36026;45.478;9.224;2022-09-02T00:03:09;3.40;;;1.98;;
50128;SDS011;36026;45.478;9.224;2022-09-02T00:06:12;3.35;;;2.03;;
50128;SDS011;36026;45.478;9.224;2022-09-02T00:09:15;3.70;;;2.10;;
50128;SDS011;36026;45.478;9.224;2022-09-02T00:12:19;4.28;;;2.00;;
50128;SDS011;36026;45.478;9.224;2022-09-02T00:15:20;3.03;;;2.00;;
50128;SDS011;36026;45.478;9.224;2022-09-02T00:18:23;5.20;;;2.13;;
50128;SDS011;36026;45.478;9.224;2022-09-02T00:21:26;4.97;;;2.30;;
50128;SDS011;36026;45.478;9.224;2022-09-02T00:24:28;4.05;;;1.95;;
50128;SDS011;36026;45.478;9.224;2022-09-02T00:27:30;5.13;;;2.25;;
50128;SDS011;36026;45.478;9.224;2022-09-02T00:30:32;2.83;;;2.10;;
50128;SDS011;36026;45.478;9.224;2022-09-02T00:33:36;4.30;;;2.05;;
50128;SDS011;36026;45.478;9.224;2022-09-02T00:36:38;4.85;;;2.30;;
50128;SDS011;36026;45.478;9.224;2022-09-02T00:39:40;5.15;;;2.28;;
50128;SDS011;36026;45.478;9.224;2022-09-02T00:42:42;7.03;;;2.28;;
50128;SDS011;36026;45.478;9.224;2022-09-02T00:45:43;4.50;;;2.00;;
50128;SDS011;36026;45.478;9.224;2022-09-02T00:48:47;6.55;;;2.08;;
50128;SDS011;36026;45.478;9.224;2022-09-02T00:51:53;4.00;;;1.85;;
50128;SDS011;36026;45.478;9.224;2022-09-02T00:54:57;4.22;;;2.00;;
50128;SDS011;36026;45.478;9.224;2022-09-02T00:58:03;4.25;;;2.00;;
50128;SDS011;36026;45.478;9.224;2022-09-02T01:01:07;5.07;;;2.22;;
50128;SDS011;36026;45.478;9.224;2022-09-02T01:04:11;3.72;;;1.75;;
50128;SDS011;36026;45.478;9.224;2022-09-02T01:07:13;3.50;;;1.70;;
50128;SDS011;36026;45.478;9.224;2022-09-02T01:10:15;6.43;;;2.10;;
50128;SDS011;36026;45.478;9.224;2022-09-02T01:13:20;5.00;;;2.10;;
50128;SDS011;36026;45.478;9.224;2022-09-02T01:16:24;4.75;;;1.88;;
50128;SDS011;36026;45.478;9.224;2022-09-02T01:19:32;5.63;;;1.58;;
50128;SDS011;36026;45.478;9.224;2022-09-02T01:22:37;5.50;;;1.95;;
50128;SDS011;36026;45.478;9.224;2022-09-02T01:25:40;3.63;;;1.90;;
50128;SDS011;36026;45.478;9.224;2022-09-02T01:28:42;4.35;;;1.90;;
50128;SDS011;36026;45.478;9.224;2022-09-02T01:31:44;3.10;;;1.50;;
50128;SDS011;36026;45.478;9.224;2022-09-02T01:34:45;6.47;;;1.90;;
50128;SDS011;36026;45.478;9.224;2022-09-02T01:37:49;3.28;;;1.98;;
50128;SDS011;36026;45.478;9.224;2022-09-02T01:40:54;2.35;;;1.70;;
50128;SDS011;36026;45.478;9.224;2022-09-02T01:43:57;5.90;;;2.20;;
50128;SDS011;36026;45.478;9.224;2022-09-02T01:46:58;6.30;;;2.03;;
50128;SDS011;36026;45.478;9.224;2022-09-02T01:50:00;5.45;;;1.90;;
50128;SDS011;36026;45.478;9.224;2022-09-02T01:53:05;2.78;;;1.67;;
50128;SDS011;36026;45.478;9.224;2022-09-02T01:56:07;2.80;;;2.03;;
50128;SDS011;36026;45.478;9.224;2022-09-02T01:59:09;2.53;;;1.40;;
50128;SDS011;36026;45.478;9.224;2022-09-02T02:02:17;4.90;;;1.95;;
50128;SDS011;36026;45.478;9.224;2022-09-02T02:05:19;2.20;;;1.50;;
50128;SDS011;36026;45.478;9.224;2022-09-02T02:08:22;4.57;;;2.00;;
50128;SDS011;36026;45.478;9.224;2022-09-02T02:11:24;3.60;;;1.83;;
50128;SDS011;36026;45.478;9.224;2022-09-02T02:14:26;3.08;;;1.48;;
50128;SDS011;36026;45.478;9.224;2022-09-02T02:17:27;6.10;;;1.73;;
50128;SDS011;36026;45.478;9.224;2022-09-02T02:20:29;4.00;;;1.40;;
50128;SDS011;36026;45.478;9.224;2022-09-02T02:23:32;2.58;;;1.42;;
50128;SDS011;36026;45.478;9.224;2022-09-02T02:26:35;5.40;;;2.10;;
50128;SDS011;36026;45.478;9.224;2022-09-02T02:29:37;4.05;;;1.80;;
50128;SDS011;36026;45.478;9.224;2022-09-02T02:32:38;4.32;;;1.95;;
50128;SDS011;36026;45.478;9.224;2022-09-02T02:35:41;3.00;;;1.80;;
50128;SDS011;36026;45.478;9.224;2022-09-02T02:38:44;2.83;;;1.70;;
50128;SDS011;36026;45.478;9.224;2022-09-02T02:44:47;5.28;;;2.03;;
50128;SDS011;36026;45.478;9.224;2022-09-02T02:47:50;2.70;;;1.50;;
50128;SDS011;36026;45.478;9.224;2022-09-02T02:50:52;2.50;;;1.63;;
50128;SDS011;36026;45.478;9.224;2022-09-02T02:53:55;4.50;;;1.70;;
50128;SDS011;36026;45.478;9.224;2022-09-02T02:56:57;5.88;;;1.92;;
50128;SDS011;36026;45.478;9.224;2022-09-02T03:00:00;4.55;;;1.73;;
50128;SDS011;36026;45.478;9.224;2022-09-02T03:03:05;3.58;;;1.65;;
50128;SDS011;36026;45.478;9.224;2022-09-02T03:06:08;3.15;;;1.70;;
50128;SDS011;36026;45.478;9.224;2022-09-02T03:09:11;4.25;;;1.73;;
50128;SDS011;36026;45.478;9.224;2022-09-02T03:12:12;1.75;;;1.38;;
50128;SDS011;36026;45.478;9.224;2022-09-02T03:15:16;4.15;;;2.00;;
50128;SDS011;36026;45.478;9.224;2022-09-02T03:21:21;3.78;;;1.60;;
50128;SDS011;36026;45.478;9.224;2022-09-02T03:24:24;3.55;;;1.90;;
50128;SDS011;36026;45.478;9.224;2022-09-02T03:27:26;2.58;;;1.80;;
50128;SDS011;36026;45.478;9.224;2022-09-02T03:30:28;3.72;;;1.77;;
50128;SDS011;36026;45.478;9.224;2022-09-02T03:33:31;3.85;;;1.73;;
50128;SDS011;36026;45.478;9.224;2022-09-02T03:36:34;4.22;;;2.00;;
50128;SDS011;36026;45.478;9.224;2022-09-02T03:39:39;2.90;;;1.77;;
50128;SDS011;36026;45.478;9.224;2022-09-02T03:42:40;2.85;;;1.85;;
50128;SDS011;36026;45.478;9.224;2022-09-02T03:45:42;4.30;;;1.80;;
50128;SDS011;36026;45.478;9.224;2022-09-02T03:48:44;4.35;;;1.80;;
50128;SDS011;36026;45.478;9.224;2022-09-02T03:51:46;3.47;;;1.80;;
50128;SDS011;36026;45.478;9.224;2022-09-02T03:54:49;4.57;;;1.58;;
50128;SDS011;36026;45.478;9.224;2022-09-02T03:57:50;8.10;;;1.88;;
50128;SDS011;36026;45.478;9.224;2022-09-02T04:00:53;8.60;;;1.83;;
50128;SDS011;36026;45.478;9.224;2022-09-02T04:03:55;6.05;;;2.10;;
50128;SDS011;36026;45.478;9.224;2022-09-02T04:06:56;5.82;;;2.03;;
50128;SDS011;36026;45.478;9.224;2022-09-02T04:10:00;6.35;;;2.25;;
50128;SDS011;36026;45.478;9.224;2022-09-02T04:16:07;3.50;;;1.80;;
50128;SDS011;36026;45.478;9.224;2022-09-02T04:19:09;3.30;;;1.98;;
50128;SDS011;36026;45.478;9.224;2022-09-02T04:22:12;5.03;;;1.80;;
50128;SDS011;36026;45.478;9.224;2022-09-02T04:25:15;3.80;;;2.15;;
50128;SDS011;36026;45.478;9.224;2022-09-02T04:28:16;4.45;;;2.03;;
50128;SDS011;36026;45.478;9.224;2022-09-02T04:31:19;4.18;;;1.98;;
50128;SDS011;36026;45.478;9.224;2022-09-02T04:34:22;5.30;;;1.98;;
50128;SDS011;36026;45.478;9.224;2022-09-02T04:37:23;3.90;;;2.00;;
50128;SDS011;36026;45.478;9.224;2022-09-02T04:40:27;4.80;;;2.00;;
50128;SDS011;36026;45.478;9.224;2022-09-02T04:43:30;3.38;;;1.92;;
50128;SDS011;36026;45.478;9.224;2022-09-02T04:46:31;5.82;;;2.00;;
50128;SDS011;36026;45.478;9.224;2022-09-02T04:49:33;4.07;;;2.00;;
50128;SDS011;36026;45.478;9.224;2022-09-02T04:52:35;5.80;;;2.50;;
50128;SDS011;36026;45.478;9.224;2022-09-02T04:55:38;6.03;;;1.90;;
50128;SDS011;36026;45.478;9.224;2022-09-02T04:58:41;2.70;;;2.00;;
50128;SDS011;36026;45.478;9.224;2022-09-02T05:01:43;2.60;;;1.80;;
50128;SDS011;36026;45.478;9.224;2022-09-02T05:04:45;4.80;;;1.80;;
50128;SDS011;36026;45.478;9.224;2022-09-02T05:07:46;6.47;;;1.60;;
50128;SDS011;36026;45.478;9.224;2022-09-02T05:10:50;7.45;;;2.17;;
50128;SDS011;36026;45.478;9.224;2022-09-02T05:13:52;5.55;;;2.13;;
50128;SDS011;36026;45.478;9.224;2022-09-02T05:16:55;12.95;;;2.28;;
50128;SDS011;36026;45.478;9.224;2022-09-02T05:19:59;5.38;;;2.03;;
50128;SDS011;36026;45.478;9.224;2022-09-02T05:23:01;3.08;;;2.00;;
50128;SDS011;36026;45.478;9.224;2022-09-02T05:26:04;4.85;;;2.10;;
50128;SDS011;36026;45.478;9.224;2022-09-02T05:32:08;7.63;;;2.22;;
50128;SDS011;36026;45.478;9.224;2022-09-02T05:35:10;6.82;;;1.98;;
50128;SDS011;36026;45.478;9.224;2022-09-02T05:38:12;94.15;;;9.15;;
50128;SDS011;36026;45.478;9.224;2022-09-02T05:41:15;8.15;;;2.40;;
50128;SDS011;36026;45.478;9.224;2022-09-02T05:44:18;3.63;;;2.42;;
50128;SDS011;36026;45.478;9.224;2022-09-02T05:47:20;8.60;;;2.83;;
50128;SDS011;36026;45.478;9.224;2022-09-02T05:53:25;5.20;;;2.08;;
50128;SDS011;36026;45.478;9.224;2022-09-02T05:56:29;5.15;;;2.38;;
50128;SDS011;36026;45.478;9.224;2022-09-02T05:59:31;7.68;;;2.88;;
50128;SDS011;36026;45.478;9.224;2022-09-02T06:02:38;9.70;;;3.42;;
50128;SDS011;36026;45.478;9.224;2022-09-02T06:05:39;7.80;;;2.95;;
50128;SDS011;36026;45.478;9.224;2022-09-02T06:08:41;4.95;;;2.33;;
50128;SDS011;36026;45.478;9.224;2022-09-02T06:11:44;5.00;;;1.92;;
50128;SDS011;36026;45.478;9.224;2022-09-02T06:14:48;7.05;;;2.20;;
50128;SDS011;36026;45.478;9.224;2022-09-02T06:17:50;7.72;;;2.08;;
50128;SDS011;36026;45.478;9.224;2022-09-02T06:20:52;4.65;;;2.10;;
50128;SDS011;36026;45.478;9.224;2022-09-02T06:23:54;6.45;;;2.30;;
50128;SDS011;36026;45.478;9.224;2022-09-02T06:26:57;3.00;;;1.90;;
50128;SDS011;36026;45.478;9.224;2022-09-02T06:30:00;3.80;;;2.25;;
50128;SDS011;36026;45.478;9.224;2022-09-02T06:33:02;6.38;;;2.10;;
50128;SDS011;36026;45.478;9.224;2022-09-02T06:36:05;5.75;;;2.55;;
50128;SDS011;36026;45.478;9.224;2022-09-02T06:39:09;4.22;;;1.98;;
50128;SDS011;36026;45.478;9.224;2022-09-02T06:42:12;7.68;;;2.00;;
50128;SDS011;36026;45.478;9.224;2022-09-02T06:45:14;4.22;;;2.10;;
50128;SDS011;36026;45.478;9.224;2022-09-02T06:48:16;4.45;;;1.88;;
50128;SDS011;36026;45.478;9.224;2022-09-02T06:51:18;7.78;;;1.80;;
50128;SDS011;36026;45.478;9.224;2022-09-02T06:54:21;6.88;;;2.00;;
50128;SDS011;36026;45.478;9.224;2022-09-02T06:57:24;5.13;;;2.60;;
50128;SDS011;36026;45.478;9.224;2022-09-02T07:00:26;5.57;;;2.03;;
50128;SDS011;36026;45.478;9.224;2022-09-02T07:03:27;3.58;;;2.30;;
50128;SDS011;36026;45.478;9.224;2022-09-02T07:06:48;5.40;;;2.22;;
50128;SDS011;36026;45.478;9.224;2022-09-02T07:09:51;6.15;;;1.95;;
50128;SDS011;36026;45.478;9.224;2022-09-02T07:12:56;4.22;;;1.77;;
50128;SDS011;36026;45.478;9.224;2022-09-02T07:18:59;3.58;;;2.00;;
50128;SDS011;36026;45.478;9.224;2022-09-02T07:22:01;3.20;;;1.70;;
50128;SDS011;36026;45.478;9.224;2022-09-02T07:25:04;5.50;;;2.20;;
50128;SDS011;36026;45.478;9.224;2022-09-02T07:28:08;4.88;;;2.00;;
50128;SDS011;36026;45.478;9.224;2022-09-02T07:31:11;3.72;;;2.13;;
50128;SDS011;36026;45.478;9.224;2022-09-02T07:34:14;3.33;;;2.05;;
50128;SDS011;36026;45.478;9.224;2022-09-02T07:37:16;3.13;;;2.40;;
50128;SDS011;36026;45.478;9.224;2022-09-02T07:40:18;3.80;;;2.28;;
50128;SDS011;36026;45.478;9.224;2022-09-02T07:43:21;3.10;;;1.70;;
50128;SDS011;36026;45.478;9.224;2022-09-02T07:46:23;4.38;;;1.58;;
50128;SDS011;36026;45.478;9.224;2022-09-02T07:49:25;6.28;;;2.10;;
50128;SDS011;36026;45.478;9.224;2022-09-02T07:52:26;6.97;;;2.15;;
50128;SDS011;36026;45.478;9.224;2022-09-02T07:55:28;4.57;;;2.17;;
50128;SDS011;36026;45.478;9.224;2022-09-02T07:58:32;5.87;;;2.27;;
50128;SDS011;36026;45.478;9.224;2022-09-02T08:01:34;5.22;;;2.22;;
50128;SDS011;36026;45.478;9.224;2022-09-02T08:04:36;5.63;;;2.30;;
50128;SDS011;36026;45.478;9.224;2022-09-02T08:07:38;6.80;;;2.28;;
50128;SDS011;36026;45.478;9.224;2022-09-02T08:10:40;6.82;;;2.47;;
50128;SDS011;36026;45.478;9.224;2022-09-02T08:13:43;3.78;;;2.03;;
50128;SDS011;36026;45.478;9.224;2022-09-02T08:16:45;7.65;;;2.45;;
50128;SDS011;36026;45.478;9.224;2022-09-02T08:19:47;4.88;;;2.38;;
50128;SDS011;36026;45.478;9.224;2022-09-02T08:22:49;3.60;;;2.33;;
50128;SDS011;36026;45.478;9.224;2022-09-02T08:25:51;7.18;;;2.45;;
50128;SDS011;36026;45.478;9.224;2022-09-02T08:28:54;4.65;;;2.10;;
50128;SDS011;36026;45.478;9.224;2022-09-02T08:34:57;3.55;;;2.35;;
50128;SDS011;36026;45.478;9.224;2022-09-02T08:38:01;4.38;;;2.00;;
50128;SDS011;36026;45.478;9.224;2022-09-02T08:41:10;3.60;;;2.35;;
50128;SDS011;36026;45.478;9.224;2022-09-02T08:44:15;3.45;;;1.80;;
50128;SDS011;36026;45.478;9.224;2022-09-02T08:47:22;4.07;;;2.42;;
50128;SDS011;36026;45.478;9.224;2022-09-02T08:50:25;4.68;;;2.80;;
50128;SDS011;36026;45.478;9.224;2022-09-02T08:53:29;4.05;;;2.40;;
50128;SDS011;36026;45.478;9.224;2022-09-02T08:56:32;5.28;;;2.35;;
50128;SDS011;36026;45.478;9.224;2022-09-02T08:59:36;4.95;;;2.22;;
50128;SDS011;36026;45.478;9.224;2022-09-02T09:02:39;4.03;;;2.53;;
50128;SDS011;36026;45.478;9.224;2022-09-02T09:05:58;5.40;;;2.90;;
50128;SDS011;36026;45.478;9.224;2022-09-02T09:09:04;4.13;;;2.50;;
50128;SDS011;36026;45.478;9.224;2022-09-02T09:12:11;4.65;;;2.50;;
50128;SDS011;36026;45.478;9.224;2022-09-02T09:15:21;3.95;;;2.47;;
50128;SDS011;36026;45.478;9.224;2022-09-02T09:18:29;3.20;;;2.22;;
50128;SDS011;36026;45.478;9.224;2022-09-02T09:21:35;4.97;;;2.67;;
50128;SDS011;36026;45.478;9.224;2022-09-02T09:24:38;4.88;;;2.60;;
50128;SDS011;36026;45.478;9.224;2022-09-02T09:27:41;8.02;;;3.25;;
50128;SDS011;36026;45.478;9.224;2022-09-02T09:30:46;6.18;;;2.58;;
50128;SDS011;36026;45.478;9.224;2022-09-02T09:33:55;4.22;;;2.65;;
50128;SDS011;36026;45.478;9.224;2022-09-02T09:36:58;4.68;;;2.20;;
50128;SDS011;36026;45.478;9.224;2022-09-02T09:39:59;4.25;;;1.90;;
50128;SDS011;36026;45.478;9.224;2022-09-02T09:43:10;4.87;;;2.67;;
50128;SDS011;36026;45.478;9.224;2022-09-02T09:46:25;5.63;;;2.72;;
50128;SDS011;36026;45.478;9.224;2022-09-02T09:49:29;4.22;;;2.70;;
50128;SDS011;36026;45.478;9.224;2022-09-02T09:52:32;4.55;;;2.67;;
50128;SDS011;36026;45.478;9.224;2022-09-02T09:55:34;5.05;;;3.05;;
50128;SDS011;36026;45.478;9.224;2022-09-02T09:58:51;6.32;;;2.78;;
50128;SDS011;36026;45.478;9.224;2022-09-02T10:01:54;3.90;;;2.80;;
50128;SDS011;36026;45.478;9.224;2022-09-02T10:05:08;3.35;;;2.75;;
50128;SDS011;36026;45.478;9.224;2022-09-02T10:08:18;3.95;;;2.28;;
50128;SDS011;36026;45.478;9.224;2022-09-02T10:11:22;3.05;;;2.40;;
50128;SDS011;36026;45.478;9.224;2022-09-02T10:14:26;3.22;;;2.03;;
50128;SDS011;36026;45.478;9.224;2022-09-02T10:17:34;4.30;;;2.00;;
50128;SDS011;36026;45.478;9.224;2022-09-02T10:20:42;3.10;;;2.00;;
50128;SDS011;36026;45.478;9.224;2022-09-02T10:23:51;6.72;;;2.17;;
50128;SDS011;36026;45.478;9.224;2022-09-02T10:26:57;3.30;;;2.60;;
50128;SDS011;36026;45.478;9.224;2022-09-02T10:30:02;4.65;;;2.55;;
50128;SDS011;36026;45.478;9.224;2022-09-02T10:36:37;4.53;;;2.30;;
50128;SDS011;36026;45.478;9.224;2022-09-02T10:40:00;2.85;;;1.77;;
50128;SDS011;36026;45.478;9.224;2022-09-02T10:43:08;5.80;;;1.80;;
50128;SDS011;36026;45.478;9.224;2022-09-02T10:46:13;6.00;;;2.10;;
50128;SDS011;36026;45.478;9.224;2022-09-02T10:49:22;5.35;;;2.08;;
50128;SDS011;36026;45.478;9.224;2022-09-02T10:52:37;4.15;;;2.30;;
50128;SDS011;36026;45.478;9.224;2022-09-02T10:55:53;3.92;;;1.65;;
50128;SDS011;36026;45.478;9.224;2022-09-02T10:58:58;3.33;;;2.00;;
50128;SDS011;36026;45.478;9.224;2022-09-02T11:02:06;2.47;;;2.03;;
50128;SDS011;36026;45.478;9.224;2022-09-02T11:05:15;3.85;;;2.30;;
50128;SDS011;36026;45.478;9.224;2022-09-02T11:08:19;4.45;;;2.47;;
50128;SDS011;36026;45.478;9.224;2022-09-02T11:11:25;5.53;;;2.40;;
50128;SDS011;36026;45.478;9.224;2022-09-02T11:14:30;3.03;;;2.30;;
50128;SDS011;36026;45.478;9.224;2022-09-02T11:17:35;3.95;;;1.88;;
50128;SDS011;36026;45.478;9.224;2022-09-02T11:20:42;4.15;;;2.15;;
50128;SDS011;36026;45.478;9.224;2022-09-02T11:23:48;3.42;;;2.15;;
50128;SDS011;36026;45.478;9.224;2022-09-02T11:26:54;3.80;;;1.80;;
50128;SDS011;36026;45.478;9.224;2022-09-02T11:30:02;2.72;;;1.70;;
50128;SDS011;36026;45.478;9.224;2022-09-02T11:33:09;3.40;;;2.00;;
50128;SDS011;36026;45.478;9.224;2022-09-02T11:36:16;3.55;;;2.22;;
50128;SDS011;36026;45.478;9.224;2022-09-02T11:39:30;2.60;;;1.83;;
50128;SDS011;36026;45.478;9.224;2022-09-02T11:42:48;4.72;;;2.20;;
50128;SDS011;36026;45.478;9.224;2022-09-02T11:46:06;3.55;;;1.83;;
50128;SDS011;36026;45.478;9.224;2022-09-02T11:49:31;5.03;;;2.20;;
50128;SDS011;36026;45.478;9.224;2022-09-02T11:52:54;2.42;;;1.85;;
50128;SDS011;36026;45.478;9.224;2022-09-02T11:56:00;3.00;;;1.95;;
50128;SDS011;36026;45.478;9.224;2022-09-02T11:59:04;2.05;;;1.40;;
50128;SDS011;36026;45.478;9.224;2022-09-02T12:02:06;3.22;;;1.80;;
50128;SDS011;36026;45.478;9.224;2022-09-02T12:09:03;4.65;;;2.47;;
50128;SDS011;36026;45.478;9.224;2022-09-02T12:12:09;3.08;;;1.98;;
50128;SDS011;36026;45.478;9.224;2022-09-02T12:15:57;2.97;;;2.00;;
50128;SDS011;36026;45.478;9.224;2022-09-02T12:19:41;2.83;;;2.08;;
50128;SDS011;36026;45.478;9.224;2022-09-02T12:22:43;3.17;;;1.90;;
50128;SDS011;36026;45.478;9.224;2022-09-02T12:25:47;2.92;;;1.73;;
50128;SDS011;36026;45.478;9.224;2022-09-02T12:28:49;2.35;;;1.65;;
50128;SDS011;36026;45.478;9.224;2022-09-02T12:31:51;1.88;;;1.50;;
50128;SDS011;36026;45.478;9.224;2022-09-02T12:37:57;6.10;;;1.95;;
50128;SDS011;36026;45.478;9.224;2022-09-02T12:41:25;5.13;;;1.80;;
50128;SDS011;36026;45.478;9.224;2022-09-02T12:44:29;1.92;;;1.58;;
50128;SDS011;36026;45.478;9.224;2022-09-02T12:47:45;3.53;;;2.42;;
50128;SDS011;36026;45.478;9.224;2022-09-02T12:50:50;3.67;;;2.63;;
50128;SDS011;36026;45.478;9.224;2022-09-02T12:53:55;5.38;;;2.42;;
50128;SDS011;36026;45.478;9.224;2022-09-02T12:56:58;4.15;;;2.22;;
50128;SDS011;36026;45.478;9.224;2022-09-02T13:00:00;3.30;;;2.63;;
50128;SDS011;36026;45.478;9.224;2022-09-02T13:03:11;6.38;;;2.10;;
50128;SDS011;36026;45.478;9.224;2022-09-02T13:06:30;5.10;;;2.20;;
50128;SDS011;36026;45.478;9.224;2022-09-02T13:09:40;3.88;;;2.65;;
50128;SDS011;36026;45.478;9.224;2022-09-02T13:13:04;3.15;;;2.00;;
50128;SDS011;36026;45.478;9.224;2022-09-02T13:16:21;3.78;;;2.00;;
50128;SDS011;36026;45.478;9.224;2022-09-02T13:30:35;5.50;;;2.50;;
50128;SDS011;36026;45.478;9.224;2022-09-02T13:34:00;3.47;;;3.00;;
50128;SDS011;36026;45.478;9.224;2022-09-02T13:37:03;4.22;;;2.70;;
50128;SDS011;36026;45.478;9.224;2022-09-02T13:40:06;2.55;;;1.80;;
50128;SDS011;36026;45.478;9.224;2022-09-02T13:43:19;4.38;;;2.25;;
50128;SDS011;36026;45.478;9.224;2022-09-02T13:46:23;4.93;;;3.05;;
50128;SDS011;36026;45.478;9.224;2022-09-02T13:49:25;5.95;;;3.10;;
50128;SDS011;36026;45.478;9.224;2022-09-02T13:52:35;5.68;;;2.97;;
50128;SDS011;36026;45.478;9.224;2022-09-02T13:55:38;2.60;;;1.95;;
50128;SDS011;36026;45.478;9.224;2022-09-02T13:58:42;4.32;;;2.60;;
50128;SDS011;36026;45.478;9.224;2022-09-02T14:01:47;6.43;;;3.17;;
50128;SDS011;36026;45.478;9.224;2022-09-02T14:04:49;3.28;;;2.22;;
50128;SDS011;36026;45.478;9.224;2022-09-02T14:07:53;3.88;;;2.08;;
50128;SDS011;36026;45.478;9.224;2022-09-02T14:10:56;4.13;;;2.85;;
50128;SDS011;36026;45.478;9.224;2022-09-02T14:13:58;3.03;;;2.10;;
50128;SDS011;36026;45.478;9.224;2022-09-02T14:20:21;4.38;;;2.50;;
50128;SDS011;36026;45.478;9.224;2022-09-02T14:23:23;6.68;;;3.88;;
50128;SDS011;36026;45.478;9.224;2022-09-02T14:26:27;5.68;;;2.70;;
50128;SDS011;36026;45.478;9.224;2022-09-02T14:29:32;3.85;;;2.67;;
50128;SDS011;36026;45.478;9.224;2022-09-02T14:32:35;4.05;;;3.00;;
50128;SDS011;36026;45.478;9.224;2022-09-02T14:35:37;4.75;;;2.65;;
50128;SDS011;36026;45.478;9.224;2022-09-02T14:38:48;2.88;;;1.50;;
50128;SDS011;36026;45.478;9.224;2022-09-02T14:41:51;4.18;;;1.95;;
50128;SDS011;36026;45.478;9.224;2022-09-02T14:44:54;4.05;;;2.28;;
50128;SDS011;36026;45.478;9.224;2022-09-02T14:48:00;5.30;;;2.80;;
50128;SDS011;36026;45.478;9.224;2022-09-02T14:51:04;5.57;;;2.13;;
50128;SDS011;36026;45.478;9.224;2022-09-02T14:54:07;4.00;;;2.28;;
50128;SDS011;36026;45.478;9.224;2022-09-02T14:57:18;3.47;;;2.40;;
50128;SDS011;36026;45.478;9.224;2022-09-02T15:00:22;4.30;;;2.95;;
50128;SDS011;36026;45.478;9.224;2022-09-02T15:03:25;4.30;;;2.90;;
50128;SDS011;36026;45.478;9.224;2022-09-02T15:06:27;5.50;;;3.05;;
50128;SDS011;36026;45.478;9.224;2022-09-02T15:09:29;3.75;;;2.47;;
50128;SDS011;36026;45.478;9.224;2022-09-02T15:12:36;6.13;;;3.58;;
50128;SDS011;36026;45.478;9.224;2022-09-02T15:15:38;5.32;;;3.03;;
50128;SDS011;36026;45.478;9.224;2022-09-02T15:18:42;5.90;;;2.70;;
50128;SDS011;36026;45.478;9.224;2022-09-02T15:21:43;6.38;;;2.47;;
50128;SDS011;36026;45.478;9.224;2022-09-02T15:24:45;6.27;;;3.03;;
50128;SDS011;36026;45.478;9.224;2022-09-02T15:30:55;3.92;;;2.33;;
50128;SDS011;36026;45.478;9.224;2022-09-02T15:33:58;6.95;;;4.55;;
50128;SDS011;36026;45.478;9.224;2022-09-02T15:37:02;2.50;;;2.08;;
50128;SDS011;36026;45.478;9.224;2022-09-02T15:40:04;7.85;;;2.97;;
50128;SDS011;36026;45.478;9.224;2022-09-02T15:43:07;4.45;;;2.47;;
50128;SDS011;36026;45.478;9.224;2022-09-02T15:46:15;3.03;;;2.60;;
50128;SDS011;36026;45.478;9.224;2022-09-02T15:49:23;5.10;;;3.08;;
50128;SDS011;36026;45.478;9.224;2022-09-02T15:52:25;2.45;;;2.17;;
50128;SDS011;36026;45.478;9.224;2022-09-02T15:55:27;6.63;;;2.87;;
50128;SDS011;36026;45.478;9.224;2022-09-02T15:58:31;4.57;;;2.60;;
50128;SDS011;36026;45.478;9.224;2022-09-02T16:01:34;5.23;;;3.20;;
50128;SDS011;36026;45.478;9.224;2022-09-02T16:04:39;3.30;;;2.97;;
50128;SDS011;36026;45.478;9.224;2022-09-02T16:07:40;6.72;;;2.92;;
50128;SDS011;36026;45.478;9.224;2022-09-02T16:10:42;3.33;;;2.65;;
50128;SDS011;36026;45.478;9.224;2022-09-02T16:13:44;3.67;;;2.50;;
50128;SDS011;36026;45.478;9.224;2022-09-02T16:16:46;5.25;;;3.30;;
50128;SDS011;36026;45.478;9.224;2022-09-02T16:19:49;5.47;;;3.28;;
50128;SDS011;36026;45.478;9.224;2022-09-02T16:22:52;4.90;;;2.90;;
50128;SDS011;36026;45.478;9.224;2022-09-02T16:26:11;5.32;;;3.20;;
50128;SDS011;36026;45.478;9.224;2022-09-02T16:29:15;3.72;;;2.80;;
50128;SDS011;36026;45.478;9.224;2022-09-02T16:32:17;4.80;;;2.97;;
50128;SDS011;36026;45.478;9.224;2022-09-02T16:35:20;8.60;;;3.00;;
50128;SDS011;36026;45.478;9.224;2022-09-02T16:38:21;8.60;;;3.33;;
50128;SDS011;36026;45.478;9.224;2022-09-02T16:41:24;6.18;;;3.88;;
50128;SDS011;36026;45.478;9.224;2022-09-02T16:44:27;7.05;;;3.85;;
50128;SDS011;36026;45.478;9.224;2022-09-02T16:47:32;7.53;;;3.95;;
50128;SDS011;36026;45.478;9.224;2022-09-02T16:50:36;6.25;;;3.60;;
50128;SDS011;36026;45.478;9.224;2022-09-02T16:56:39;6.93;;;4.07;;
50128;SDS011;36026;45.478;9.224;2022-09-02T16:59:41;5.93;;;4.30;;
50128;SDS011;36026;45.478;9.224;2022-09-02T17:02:42;9.95;;;4.72;;
50128;SDS011;36026;45.478;9.224;2022-09-02T17:05:45;7.43;;;4.32;;
50128;SDS011;36026;45.478;9.224;2022-09-02T17:08:48;9.35;;;5.00;;
50128;SDS011;36026;45.478;9.224;2022-09-02T17:11:49;9.52;;;4.65;;
50128;SDS011;36026;45.478;9.224;2022-09-02T17:14:51;12.68;;;4.85;;
50128;SDS011;36026;45.478;9.224;2022-09-02T17:17:53;7.78;;;4.82;;
50128;SDS011;36026;45.478;9.224;2022-09-02T17:21:09;6.65;;;4.22;;
50128;SDS011;36026;45.478;9.224;2022-09-02T17:24:14;9.02;;;4.22;;
50128;SDS011;36026;45.478;9.224;2022-09-02T17:27:15;7.97;;;5.40;;
50128;SDS011;36026;45.478;9.224;2022-09-02T17:30:17;6.25;;;5.03;;
50128;SDS011;36026;45.478;9.224;2022-09-02T17:33:19;5.90;;;5.25;;
50128;SDS011;36026;45.478;9.224;2022-09-02T17:36:22;6.28;;;4.40;;
50128;SDS011;36026;45.478;9.224;2022-09-02T17:39:25;10.13;;;4.18;;
50128;SDS011;36026;45.478;9.224;2022-09-02T17:42:26;6.00;;;3.83;;
50128;SDS011;36026;45.478;9.224;2022-09-02T17:45:27;5.47;;;3.70;;
50128;SDS011;36026;45.478;9.224;2022-09-02T17:48:29;5.55;;;4.40;;
50128;SDS011;36026;45.478;9.224;2022-09-02T17:51:32;5.88;;;4.30;;
50128;SDS011;36026;45.478;9.224;2022-09-02T17:54:34;10.35;;;3.60;;
50128;SDS011;36026;45.478;9.224;2022-09-02T17:57:37;4.32;;;3.83;;
50128;SDS011;36026;45.478;9.224;2022-09-02T18:00:47;3.53;;;3.22;;
50128;SDS011;36026;45.478;9.224;2022-09-02T18:03:53;5.32;;;3.55;;
50128;SDS011;36026;45.478;9.224;2022-09-02T18:07:05;5.45;;;3.53;;
50128;SDS011;36026;45.478;9.224;2022-09-02T18:10:12;6.82;;;4.03;;
50128;SDS011;36026;45.478;9.224;2022-09-02T18:13:14;4.07;;;3.27;;
50128;SDS011;36026;45.478;9.224;2022-09-02T18:16:26;3.83;;;3.53;;
50128;SDS011;36026;45.478;9.224;2022-09-02T18:19:34;5.22;;;3.25;;
50128;SDS011;36026;45.478;9.224;2022-09-02T18:22:47;5.95;;;3.42;;
50128;SDS011;36026;45.478;9.224;2022-09-02T18:25:57;8.70;;;4.63;;
50128;SDS011;36026;45.478;9.224;2022-09-02T18:29:06;5.72;;;3.70;;
50128;SDS011;36026;45.478;9.224;2022-09-02T18:32:11;7.47;;;4.53;;
50128;SDS011;36026;45.478;9.224;2022-09-02T18:35:19;4.47;;;3.90;;
50128;SDS011;36026;45.478;9.224;2022-09-02T18:38:26;4.38;;;3.90;;
50128;SDS011;36026;45.478;9.224;2022-09-02T18:41:39;4.43;;;4.03;;
50128;SDS011;36026;45.478;9.224;2022-09-02T18:44:52;6.05;;;4.00;;
50128;SDS011;36026;45.478;9.224;2022-09-02T18:48:01;5.95;;;3.35;;
50128;SDS011;36026;45.478;9.224;2022-09-02T18:51:06;5.93;;;3.88;;
50128;SDS011;36026;45.478;9.224;2022-09-02T18:54:12;6.82;;;3.75;;
50128;SDS011;36026;45.478;9.224;2022-09-02T18:57:15;4.47;;;3.20;;
50128;SDS011;36026;45.478;9.224;2022-09-02T19:00:17;5.45;;;3.83;;
50128;SDS011;36026;45.478;9.224;2022-09-02T19:03:21;6.55;;;3.58;;
50128;SDS011;36026;45.478;9.224;2022-09-02T19:06:24;5.18;;;3.92;;
50128;SDS011;36026;45.478;9.224;2022-09-02T19:09:29;4.35;;;3.40;;
50128;SDS011;36026;45.478;9.224;2022-09-02T19:12:30;5.50;;;3.63;;
50128;SDS011;36026;45.478;9.224;2022-09-02T19:15:34;5.43;;;3.40;;
50128;SDS011;36026;45.478;9.224;2022-09-02T19:18:35;4.43;;;3.60;;
50128;SDS011;36026;45.478;9.224;2022-09-02T19:21:37;4.35;;;3.70;;
50128;SDS011;36026;45.478;9.224;2022-09-02T19:24:44;9.07;;;3.58;;